createdAt,value
2022-10-23T00:01:33.369Z,7.28
2022-10-23T00:04:03.926Z,7.70
2022-10-23T00:06:32.697Z,9.40
2022-10-23T00:08:59.877Z,9.13
2022-10-23T00:11:28.600Z,13.05
2022-10-23T00:13:57.415Z,12.57
2022-10-23T00:16:24.152Z,9.60
2022-10-23T00:18:51.162Z,17.38
2022-10-23T00:21:18.573Z,9.93
2022-10-23T00:23:45.685Z,10.73
2022-10-23T00:26:16.629Z,12.57
2022-10-23T00:28:44.748Z,9.38
2022-10-23T00:31:11.569Z,17.92
2022-10-23T00:33:40.983Z,9.77
2022-10-23T00:36:10.480Z,12.13
2022-10-23T00:38:38.449Z,10.57
2022-10-23T00:41:07.027Z,15.02
2022-10-23T00:43:34.990Z,8.40
2022-10-23T00:46:02.137Z,10.63
2022-10-23T00:48:29.479Z,7.53
2022-10-23T00:50:57.020Z,12.98
2022-10-23T00:53:25.164Z,38.60
2022-10-23T00:55:54.789Z,10.65
2022-10-23T00:58:21.844Z,9.52
2022-10-23T01:00:52.506Z,9.07
2022-10-23T01:03:22.571Z,14.98
2022-10-23T01:06:06.887Z,11.30
2022-10-23T01:08:57.943Z,10.45
2022-10-23T01:11:44.440Z,9.38
2022-10-23T01:14:29.256Z,16.10
2022-10-23T01:17:12.418Z,13.77
2022-10-23T01:20:14.022Z,8.52
2022-10-23T01:23:07.994Z,14.15
2022-10-23T01:25:53.461Z,8.43
2022-10-23T01:28:30.417Z,14.48
2022-10-23T01:30:59.592Z,12.77
2022-10-23T01:33:44.749Z,8.82
2022-10-23T01:36:14.932Z,8.48
2022-10-23T01:38:53.952Z,13.77
2022-10-23T01:41:30.280Z,10.38
2022-10-23T01:44:06.680Z,10.65
2022-10-23T01:46:37.364Z,14.85
2022-10-23T01:49:11.458Z,15.63
2022-10-23T01:51:41.370Z,9.98
2022-10-23T01:54:13.025Z,10.52
2022-10-23T01:56:45.584Z,10.57
2022-10-23T01:59:22.699Z,13.63
2022-10-23T02:01:54.148Z,15.70
2022-10-23T02:04:31.186Z,19.38
2022-10-23T02:07:01.029Z,10.10
2022-10-23T02:09:32.019Z,11.98
2022-10-23T02:12:19.020Z,8.18
2022-10-23T02:14:58.444Z,8.77
2022-10-23T02:17:45.790Z,9.07
2022-10-23T02:20:55.965Z,12.15
2022-10-23T02:23:33.456Z,9.50
2022-10-23T02:26:07.907Z,11.45
2022-10-23T02:28:42.306Z,12.77
2022-10-23T02:31:13.737Z,15.52
2022-10-23T02:33:41.062Z,9.82
2022-10-23T02:36:08.824Z,10.27
2022-10-23T02:38:40.393Z,11.57
2022-10-23T02:41:25.666Z,8.68
2022-10-23T02:44:01.985Z,10.02
2022-10-23T02:46:49.156Z,9.55
2022-10-23T02:49:37.593Z,12.52
2022-10-23T02:52:37.779Z,13.32
2022-10-23T02:55:46.570Z,15.95
2022-10-23T02:58:19.558Z,12.45
2022-10-23T03:00:55.237Z,12.40
2022-10-23T03:03:36.179Z,12.38
2022-10-23T03:06:03.866Z,14.57
2022-10-23T03:08:30.679Z,10.80
2022-10-23T03:10:57.674Z,10.20
2022-10-23T03:13:28.252Z,10.35
2022-10-23T03:15:55.032Z,13.38
2022-10-23T03:18:21.819Z,22.63
2022-10-23T03:20:50.689Z,11.50
2022-10-23T03:23:22.154Z,14.27
2022-10-23T03:25:48.945Z,11.43
2022-10-23T03:28:29.245Z,12.15
2022-10-23T03:30:56.329Z,12.38
2022-10-23T03:33:23.538Z,17.70
2022-10-23T03:35:50.520Z,9.48
2022-10-23T03:38:17.569Z,10.02
2022-10-23T03:40:44.644Z,15.23
2022-10-23T03:43:12.843Z,13.45
2022-10-23T03:45:39.897Z,12.05
2022-10-23T03:48:07.765Z,15.40
2022-10-23T03:50:36.229Z,21.30
2022-10-23T03:53:03.149Z,16.25
2022-10-23T03:55:30.055Z,16.88
2022-10-23T03:57:56.850Z,13.32
2022-10-23T04:00:23.846Z,12.07
2022-10-23T04:02:50.903Z,20.08
2022-10-23T04:05:17.927Z,22.23
2022-10-23T04:07:56.070Z,12.45
2022-10-23T04:10:23.266Z,14.48
2022-10-23T04:12:50.993Z,19.55
2022-10-23T04:15:17.786Z,17.08
2022-10-23T04:17:46.300Z,13.10
2022-10-23T04:20:13.238Z,17.30
2022-10-23T04:22:40.301Z,9.68
2022-10-23T04:25:08.280Z,20.25
2022-10-23T04:27:35.251Z,11.98
2022-10-23T04:30:03.696Z,15.93
2022-10-23T04:32:31.394Z,22.05
2022-10-23T04:34:58.313Z,8.50
2022-10-23T04:37:25.158Z,10.98
2022-10-23T04:39:52.029Z,11.60
2022-10-23T04:42:18.909Z,17.88
2022-10-23T04:44:47.362Z,14.45
2022-10-23T04:47:14.247Z,15.82
2022-10-23T04:49:53.581Z,12.43
2022-10-23T04:52:56.988Z,8.60
2022-10-23T04:55:50.545Z,19.45
2022-10-23T04:58:24.284Z,13.93
2022-10-23T05:00:52.097Z,10.85
2022-10-23T05:03:26.326Z,9.95
2022-10-23T05:05:55.536Z,13.88
2022-10-23T05:08:45.392Z,11.23
2022-10-23T05:11:41.383Z,16.17
2022-10-23T05:14:09.373Z,12.30
2022-10-23T05:16:38.253Z,10.60
2022-10-23T05:19:09.493Z,24.77
2022-10-23T05:21:40.478Z,16.85
2022-10-23T05:24:07.508Z,21.02
2022-10-23T05:26:34.844Z,14.07
2022-10-23T05:29:06.498Z,23.30
2022-10-23T05:31:35.173Z,14.60
2022-10-23T05:34:13.326Z,14.45
2022-10-23T05:36:44.073Z,17.65
2022-10-23T05:39:11.280Z,9.65
2022-10-23T05:41:39.118Z,14.25
2022-10-23T05:44:06.501Z,18.20
2022-10-23T05:47:00.402Z,17.70
2022-10-23T05:49:53.477Z,13.60
2022-10-23T05:52:39.866Z,16.10
2022-10-23T05:55:28.130Z,13.30
2022-10-23T05:57:54.931Z,10.38
2022-10-23T06:00:37.740Z,13.15
2022-10-23T06:03:24.467Z,18.83
2022-10-23T06:05:52.059Z,14.85
2022-10-23T06:08:21.608Z,19.55
2022-10-23T06:10:50.564Z,30.67
2022-10-23T06:13:18.569Z,18.92
2022-10-23T06:15:45.454Z,16.55
2022-10-23T06:18:20.712Z,13.50
2022-10-23T06:21:01.184Z,20.10
2022-10-23T06:23:34.456Z,16.42
2022-10-23T06:26:04.971Z,23.27
2022-10-23T06:28:40.271Z,14.52
2022-10-23T06:31:10.152Z,16.38
2022-10-23T06:33:37.315Z,14.82
2022-10-23T06:36:08.203Z,20.88
2022-10-23T06:38:39.173Z,17.65
2022-10-23T06:41:14.778Z,13.68
2022-10-23T06:43:43.820Z,15.82
2022-10-23T06:46:30.215Z,20.70
2022-10-23T06:49:32.322Z,13.85
2022-10-23T06:51:59.597Z,16.50
2022-10-23T06:54:26.756Z,9.40
2022-10-23T06:57:13.780Z,17.65
2022-10-23T06:59:46.074Z,16.45
2022-10-23T07:02:12.949Z,21.27
2022-10-23T07:04:41.164Z,18.13
2022-10-23T07:07:13.859Z,12.48
2022-10-23T07:09:48.812Z,15.27
2022-10-23T07:12:25.225Z,12.90
2022-10-23T07:15:06.865Z,13.63
2022-10-23T07:17:33.807Z,25.77
2022-10-23T07:20:00.636Z,16.38
2022-10-23T07:22:27.855Z,11.43
2022-10-23T07:25:04.713Z,14.43
2022-10-23T07:27:38.471Z,17.20
2022-10-23T07:30:08.046Z,15.27
2022-10-23T07:32:44.815Z,18.58
2022-10-23T07:35:33.010Z,12.80
2022-10-23T07:38:09.324Z,13.32
2022-10-23T07:40:40.871Z,9.90
2022-10-23T07:43:09.903Z,14.07
2022-10-23T07:45:37.135Z,14.05
2022-10-23T07:48:13.511Z,9.88
2022-10-23T07:51:07.952Z,15.05
2022-10-23T07:53:38.301Z,16.10
2022-10-23T07:56:23.300Z,13.60
2022-10-23T07:59:13.534Z,11.10
2022-10-23T08:01:43.118Z,15.32
2022-10-23T08:04:10.793Z,17.40
2022-10-23T08:06:45.143Z,14.93
2022-10-23T08:09:12.229Z,20.33
2022-10-23T08:11:42.164Z,13.55
2022-10-23T08:14:10.834Z,11.05
2022-10-23T08:16:39.738Z,11.23
2022-10-23T08:19:26.429Z,10.73
2022-10-23T08:21:55.192Z,11.77
2022-10-23T08:24:21.968Z,8.90
2022-10-23T08:26:50.439Z,14.05
2022-10-23T08:29:20.931Z,7.43
2022-10-23T08:31:49.333Z,13.57
2022-10-23T08:34:24.809Z,11.30
2022-10-23T08:36:53.278Z,12.68
2022-10-23T08:39:20.185Z,11.90
2022-10-23T08:42:25.131Z,13.07
2022-10-23T08:45:28.594Z,7.45
2022-10-23T08:48:13.062Z,9.23
2022-10-23T08:51:18.003Z,10.50
2022-10-23T08:54:12.708Z,10.70
2022-10-23T08:56:42.227Z,13.20
2022-10-23T08:59:28.355Z,6.72
2022-10-23T09:02:01.832Z,10.18
2022-10-23T09:04:29.236Z,6.85
2022-10-23T09:07:11.023Z,8.57
2022-10-23T09:10:08.970Z,7.43
2022-10-23T09:12:36.359Z,7.72
2022-10-23T09:15:28.307Z,5.75
2022-10-23T09:18:01.787Z,8.43
2022-10-23T09:20:34.237Z,7.45
2022-10-23T09:23:14.190Z,10.40
2022-10-23T09:25:42.000Z,6.28
2022-10-23T09:28:42.282Z,12.55
2022-10-23T09:31:11.722Z,9.38
2022-10-23T09:33:39.119Z,9.95
2022-10-23T09:36:13.657Z,16.80
2022-10-23T09:38:49.829Z,4.93
2022-10-23T09:41:36.554Z,6.85
2022-10-23T09:44:23.405Z,9.48
2022-10-23T09:46:56.191Z,8.02
2022-10-23T09:49:25.894Z,4.30
2022-10-23T09:52:10.411Z,7.80
2022-10-23T09:54:47.055Z,15.52
2022-10-23T09:57:37.057Z,11.05
2022-10-23T10:00:24.035Z,7.10
2022-10-23T10:03:06.403Z,13.02
2022-10-23T10:06:03.052Z,4.13
2022-10-23T10:08:48.686Z,10.63
2022-10-23T10:11:35.331Z,14.00
2022-10-23T10:14:07.947Z,13.90
2022-10-23T10:17:01.251Z,9.27
2022-10-23T10:19:55.702Z,6.65
2022-10-23T10:22:28.296Z,3.83
2022-10-23T10:25:12.496Z,6.13
2022-10-23T10:28:09.735Z,6.75
2022-10-23T10:30:49.271Z,7.85
2022-10-23T10:33:24.850Z,3.42
2022-10-23T10:36:10.808Z,8.25
2022-10-23T10:38:50.766Z,3.65
2022-10-23T10:41:24.102Z,5.55
2022-10-23T10:44:15.350Z,4.03
2022-10-23T10:47:00.235Z,3.83
2022-10-23T10:49:45.923Z,2.65
2022-10-23T10:52:27.043Z,8.55
2022-10-23T10:55:12.458Z,3.35
2022-10-23T10:57:47.221Z,7.93
2022-10-23T11:00:20.821Z,8.43
2022-10-23T11:03:07.984Z,8.32
2022-10-23T11:05:37.386Z,3.72
2022-10-23T11:08:06.729Z,6.47
2022-10-23T11:10:37.713Z,3.80
2022-10-23T11:13:04.712Z,5.07
2022-10-23T11:15:42.591Z,6.20
2022-10-23T11:18:18.799Z,5.20
2022-10-23T11:21:18.037Z,7.78
2022-10-23T11:24:07.622Z,9.27
2022-10-23T11:27:02.040Z,4.03
2022-10-23T11:29:57.169Z,3.92
2022-10-23T11:32:41.733Z,4.32
2022-10-23T11:35:52.827Z,9.18
2022-10-23T11:38:31.800Z,2.25
2022-10-23T11:41:03.127Z,1.88
2022-10-23T11:44:01.332Z,2.92
2022-10-23T11:46:35.127Z,2.45
2022-10-23T11:49:05.779Z,4.15
2022-10-23T11:51:36.823Z,3.55
2022-10-23T11:54:15.556Z,2.88
2022-10-23T11:57:14.714Z,2.92
2022-10-23T11:59:47.171Z,4.13
2022-10-23T12:02:34.252Z,1.50
2022-10-23T12:05:24.502Z,1.73
2022-10-23T12:07:56.671Z,2.03
2022-10-23T12:10:34.337Z,1.80
2022-10-23T12:13:06.495Z,5.57
2022-10-23T12:15:36.914Z,2.08
2022-10-23T12:18:17.864Z,3.38
2022-10-23T12:20:52.132Z,2.45
2022-10-23T12:23:47.289Z,0.82
2022-10-23T12:26:50.610Z,3.00
2022-10-23T12:31:58.293Z,4.75
2022-10-23T12:35:03.813Z,3.30
2022-10-23T12:38:11.988Z,2.35
2022-10-23T12:40:38.795Z,3.85
2022-10-23T12:43:25.987Z,1.23
2022-10-23T12:45:54.106Z,3.92
2022-10-23T12:48:23.020Z,2.05
2022-10-23T12:50:54.941Z,7.35
2022-10-23T12:53:23.480Z,2.30
2022-10-23T12:58:35.020Z,3.17
2022-10-23T13:01:07.142Z,5.75
2022-10-23T13:03:34.933Z,5.60
2022-10-23T13:06:03.006Z,2.50
2022-10-23T13:08:40.212Z,2.33
2022-10-23T13:11:26.554Z,4.85
2022-10-23T13:13:55.592Z,2.90
2022-10-23T13:16:27.363Z,3.65
2022-10-23T13:21:24.399Z,7.30
2022-10-23T13:23:52.553Z,4.97
2022-10-23T13:26:45.000Z,6.28
2022-10-23T13:31:53.137Z,4.25
2022-10-23T13:34:30.402Z,2.92
2022-10-23T13:37:19.985Z,2.78
2022-10-23T13:39:46.798Z,5.35
2022-10-23T13:42:15.048Z,4.00
2022-10-23T13:44:42.215Z,9.52
2022-10-23T13:47:17.613Z,2.90
2022-10-23T13:49:44.330Z,3.78
2022-10-23T13:52:19.280Z,1.30
2022-10-23T13:54:46.027Z,2.60
2022-10-23T13:57:15.387Z,6.15
2022-10-23T13:59:42.826Z,9.52
2022-10-23T14:02:21.484Z,5.72
2022-10-23T14:04:49.768Z,1.02
2022-10-23T14:07:16.650Z,2.72
2022-10-23T14:09:44.015Z,3.28
2022-10-23T14:12:12.385Z,1.70
2022-10-23T14:14:39.300Z,11.10
2022-10-23T14:17:06.334Z,3.88
2022-10-23T14:19:34.309Z,1.23
2022-10-23T14:22:01.293Z,7.97
2022-10-23T14:24:28.162Z,5.45
2022-10-23T14:26:57.478Z,2.13
2022-10-23T14:29:24.689Z,0.80
2022-10-23T14:31:51.812Z,1.83
2022-10-23T14:34:18.538Z,4.82
2022-10-23T14:36:50.305Z,2.13
2022-10-23T14:39:18.079Z,7.95
2022-10-23T14:41:44.824Z,1.45
2022-10-23T14:44:11.621Z,8.95
2022-10-23T14:46:38.580Z,0.93
2022-10-23T14:49:05.763Z,1.40
2022-10-23T14:51:33.002Z,1.58
2022-10-23T14:54:01.817Z,1.63
2022-10-23T14:56:30.676Z,1.92
2022-10-23T14:59:04.035Z,2.67
2022-10-23T15:01:40.130Z,3.13
2022-10-23T15:04:09.874Z,9.77
2022-10-23T15:06:38.757Z,1.90
2022-10-23T15:09:05.613Z,2.67
2022-10-23T15:11:32.626Z,5.53
2022-10-23T15:14:00.240Z,3.17
2022-10-23T15:16:27.687Z,1.73
2022-10-23T15:18:54.536Z,5.82
2022-10-23T15:21:21.547Z,10.88
2022-10-23T15:23:48.521Z,8.52
2022-10-23T15:26:22.982Z,10.15
2022-10-23T15:28:58.646Z,3.55
2022-10-23T15:31:37.816Z,6.88
2022-10-23T15:34:05.866Z,1.95
2022-10-23T15:36:32.883Z,1.70
2022-10-23T15:38:59.993Z,3.28
2022-10-23T15:41:34.563Z,1.20
2022-10-23T15:44:02.889Z,1.85
2022-10-23T15:46:29.860Z,2.00
2022-10-23T15:48:56.681Z,0.85
2022-10-23T15:51:23.425Z,2.65
2022-10-23T15:53:50.322Z,5.22
2022-10-23T15:56:17.439Z,6.72
2022-10-23T15:58:44.277Z,5.22
2022-10-23T16:01:11.127Z,1.63
2022-10-23T16:03:39.186Z,1.55
2022-10-23T16:06:11.878Z,4.15
2022-10-23T16:08:39.216Z,6.70
2022-10-23T16:11:15.116Z,3.20
2022-10-23T16:13:43.570Z,2.92
2022-10-23T16:16:10.908Z,1.50
2022-10-23T16:18:37.872Z,4.68
2022-10-23T16:21:05.580Z,2.28
2022-10-23T16:23:33.337Z,1.80
2022-10-23T16:26:06.493Z,3.03
2022-10-23T16:28:33.575Z,2.85
2022-10-23T16:31:00.416Z,9.60
2022-10-23T16:33:27.247Z,2.88
2022-10-23T16:35:54.025Z,1.90
2022-10-23T16:38:22.938Z,3.70
2022-10-23T16:40:53.835Z,1.35
2022-10-23T16:43:39.219Z,5.57
2022-10-23T16:46:25.188Z,2.10
2022-10-23T16:48:52.825Z,1.52
2022-10-23T16:51:22.367Z,3.35
2022-10-23T16:53:49.248Z,6.18
2022-10-23T16:56:18.864Z,2.78
2022-10-23T16:58:46.542Z,2.53
2022-10-23T17:01:18.350Z,4.45
2022-10-23T17:06:21.582Z,2.15
2022-10-23T17:08:48.704Z,5.95
2022-10-23T17:11:30.717Z,1.98
2022-10-23T17:16:28.967Z,5.47
2022-10-23T17:18:56.487Z,3.17
2022-10-23T17:21:24.108Z,2.67
2022-10-23T17:23:51.294Z,3.95
2022-10-23T17:26:20.908Z,2.67
2022-10-23T17:28:47.858Z,6.75
2022-10-23T17:31:23.073Z,2.75
2022-10-23T17:33:52.730Z,5.50
2022-10-23T17:36:21.384Z,4.07
2022-10-23T17:38:48.601Z,5.13
2022-10-23T17:41:18.575Z,3.22
2022-10-23T17:43:46.491Z,10.10
2022-10-23T17:46:14.619Z,2.17
2022-10-23T17:48:44.840Z,1.27
2022-10-23T17:51:20.778Z,4.75
2022-10-23T17:53:50.354Z,1.83
2022-10-23T17:56:26.420Z,2.50
2022-10-23T17:58:55.209Z,2.25
2022-10-23T18:01:25.191Z,7.55
2022-10-23T18:04:00.028Z,4.72
2022-10-23T18:06:31.905Z,5.18
2022-10-23T18:11:28.975Z,3.63
2022-10-23T18:13:57.435Z,6.57
2022-10-23T18:16:24.701Z,6.03
2022-10-23T18:18:52.606Z,3.08
2022-10-23T18:21:21.683Z,3.30
2022-10-23T18:23:48.656Z,5.82
2022-10-23T18:26:20.140Z,12.63
2022-10-23T18:28:51.164Z,5.20
2022-10-23T18:31:18.969Z,6.45
2022-10-23T18:33:45.940Z,13.63
2022-10-23T18:36:16.204Z,4.85
2022-10-23T18:38:43.142Z,14.15
2022-10-23T18:41:10.193Z,7.78
2022-10-23T18:43:43.835Z,5.90
2022-10-23T18:46:13.053Z,4.10
2022-10-23T18:48:40.827Z,5.60
2022-10-23T18:51:16.106Z,4.75
2022-10-23T18:53:46.656Z,2.45
2022-10-23T18:56:24.488Z,2.97
2022-10-23T18:58:53.268Z,5.95
2022-10-23T19:01:21.237Z,2.85
2022-10-23T19:03:48.791Z,8.15
2022-10-23T19:06:16.023Z,3.13
2022-10-23T19:08:44.205Z,2.67
2022-10-23T19:11:12.347Z,6.93
2022-10-23T19:13:41.574Z,3.35
2022-10-23T19:16:14.911Z,5.10
2022-10-23T19:18:46.854Z,4.95
2022-10-23T19:23:43.315Z,2.60
2022-10-23T19:26:18.656Z,4.68
2022-10-23T19:31:19.618Z,7.38
2022-10-23T19:33:56.710Z,6.00
2022-10-23T19:36:23.809Z,3.83
2022-10-23T19:38:50.987Z,8.98
2022-10-23T19:41:18.787Z,8.75
2022-10-23T19:43:45.698Z,7.82
2022-10-23T19:46:12.655Z,8.15
2022-10-23T19:48:43.562Z,7.05
2022-10-23T19:51:10.418Z,7.07
2022-10-23T19:53:37.277Z,3.20
2022-10-23T19:56:09.105Z,2.95
2022-10-23T19:58:35.949Z,8.13
2022-10-23T20:01:11.910Z,3.75
2022-10-23T20:03:40.324Z,3.65
2022-10-23T20:06:16.143Z,6.30
2022-10-23T20:08:43.218Z,5.00
2022-10-23T20:11:17.845Z,2.90
2022-10-23T20:13:47.892Z,8.35
2022-10-23T20:16:26.212Z,4.22
2022-10-23T20:18:53.238Z,6.32
2022-10-23T20:21:20.658Z,7.47
2022-10-23T20:23:48.118Z,5.00
2022-10-23T20:26:17.370Z,5.35
2022-10-23T20:28:51.033Z,4.43
2022-10-23T20:31:19.371Z,4.28
2022-10-23T20:33:46.480Z,8.50
2022-10-23T20:36:47.311Z,6.43
2022-10-23T20:39:17.531Z,3.38
2022-10-23T20:41:45.060Z,2.97
2022-10-23T20:44:13.999Z,6.65
2022-10-23T20:46:41.287Z,5.10
2022-10-23T20:49:08.343Z,7.03
2022-10-23T20:51:36.134Z,5.47
2022-10-23T20:54:03.627Z,5.65
2022-10-23T20:56:35.569Z,5.18
2022-10-23T21:01:34.388Z,7.77
2022-10-23T21:04:02.912Z,11.13
2022-10-23T21:06:45.887Z,3.28
2022-10-23T21:09:19.408Z,5.47
2022-10-23T21:11:46.306Z,9.07
2022-10-23T21:14:13.285Z,3.67
2022-10-23T21:16:44.165Z,3.92
2022-10-23T21:19:13.594Z,4.28
2022-10-23T21:21:40.401Z,5.50
2022-10-23T21:24:09.403Z,3.72
2022-10-23T21:26:36.751Z,6.50
2022-10-23T21:29:20.131Z,5.57
2022-10-23T21:31:54.764Z,5.43
2022-10-23T21:34:21.951Z,4.18
2022-10-23T21:37:11.342Z,3.70
2022-10-23T21:39:35.395Z,4.30
2022-10-23T21:42:02.099Z,8.85
2022-10-23T21:44:28.861Z,5.47
2022-10-23T21:46:55.583Z,8.32
2022-10-23T21:49:22.242Z,5.80
2022-10-23T21:51:48.925Z,3.50
2022-10-23T21:54:15.855Z,6.65
2022-10-23T21:56:45.336Z,3.05
2022-10-23T21:59:18.806Z,3.80
2022-10-23T22:01:47.371Z,4.15
2022-10-23T22:04:17.090Z,4.25
2022-10-23T22:06:44.959Z,2.58
2022-10-23T22:09:15.221Z,2.45
2022-10-23T22:11:42.090Z,5.75
2022-10-23T22:14:08.918Z,6.15
2022-10-23T22:16:35.629Z,17.45
2022-10-23T22:19:03.749Z,5.20
2022-10-23T22:21:31.141Z,5.35
2022-10-23T22:23:59.436Z,3.03
2022-10-23T22:26:27.783Z,2.63
2022-10-23T22:28:56.830Z,3.80
2022-10-23T22:31:26.392Z,5.18
2022-10-23T22:33:54.026Z,4.82
2022-10-23T22:36:21.642Z,4.97
2022-10-23T22:38:48.640Z,2.63
2022-10-23T22:41:16.208Z,3.72
2022-10-23T22:43:43.098Z,3.28
2022-10-23T22:46:18.368Z,2.83
2022-10-23T22:48:46.021Z,3.80
2022-10-23T22:51:15.319Z,3.20
2022-10-23T22:53:42.794Z,6.93
2022-10-23T22:56:12.368Z,5.90
2022-10-23T22:58:39.258Z,3.78
2022-10-23T23:01:13.862Z,2.83
2022-10-23T23:03:41.471Z,3.35
2022-10-23T23:06:09.043Z,1.52
2022-10-23T23:08:37.228Z,4.45
2022-10-23T23:11:04.211Z,3.08
2022-10-23T23:13:31.342Z,3.17
2022-10-23T23:15:58.228Z,8.75
2022-10-23T23:18:25.302Z,2.63
2022-10-23T23:20:51.987Z,4.80
2022-10-23T23:23:19.384Z,4.25
2022-10-23T23:25:48.776Z,4.32
2022-10-23T23:28:17.885Z,10.00
2022-10-23T23:33:13.896Z,6.35
2022-10-23T23:35:46.010Z,4.18
2022-10-23T23:38:13.136Z,8.20
2022-10-23T23:40:40.205Z,2.60
2022-10-23T23:43:07.840Z,3.70
2022-10-23T23:45:34.545Z,3.13
2022-10-23T23:48:01.238Z,3.85
2022-10-23T23:50:28.113Z,4.50
2022-10-23T23:52:54.947Z,1.90
2022-10-23T23:55:21.656Z,4.95
2022-10-23T23:57:48.354Z,1.85
